Terminal Aerodrome Forecast
Issued by NWS

Home | Current Version | Previous Version | Text Only | Print | Product List | Glossary On
Versions: 1 2 3 4 5 6 7 8 9 10 11 12
000
FTUS45 KABQ 311721
TAFGUP
TAF
KGUP 311721Z 3118/0118 25007KT P6SM VCSH BKN100
     FM312000 26010KT P6SM VCTS OVC070CB
     FM010100 22007KT P6SM VCSH BKN080
     FM010300 VRB03KT P6SM BKN100=

USA.gov is the U.S. government's official web portal to all federal, state and local government web resources and services.